Time;durP1;ratioP1;P1;durP2;ratioP2;P2;SDS_P1;SDS_P2;PMS_P1;PMS_P2;Temp;Humidity;BMP_temperature;BMP_pressure;BME280_temperature;BME280_humidity;BME280_pressure;Samples;Min_cycle;Max_cycle;Signal;HPM_P1;HPM_P2
2022/11/07 00:02:14;;;;;;;21.17;10.63;;;;;;;;;;4932539;28;20446;-59
2022/11/07 00:04:40;;;;;;;20.45;10.07;;;;;;;;;;4931932;28;20088;-59
2022/11/07 00:07:06;;;;;;;20.80;10.15;;;;;;;;;;4931538;28;20523;-58
2022/11/07 00:09:32;;;;;;;19.17;9.43;;;;;;;;;;4932020;28;20062;-59
2022/11/07 00:11:58;;;;;;;26.75;12.10;;;;;;;;;;4931744;28;20458;-59
2022/11/07 00:14:23;;;;;;;23.50;12.25;;;;;;;;;;4932089;28;20528;-59
2022/11/07 00:16:49;;;;;;;21.88;11.50;;;;;;;;;;4931877;28;20549;-59
2022/11/07 00:19:18;;;;;;;23.45;9.73;;;;;;;;;;4933047;28;20445;-60
2022/11/07 00:21:44;;;;;;;20.10;9.52;;;;;;;;;;4931266;28;20446;-59
2022/11/07 00:24:11;;;;;;;18.17;9.82;;;;;;;;;;4932473;28;20394;-59
2022/11/07 00:26:37;;;;;;;21.45;9.63;;;;;;;;;;4931538;28;20481;-59
2022/11/07 00:29:04;;;;;;;19.90;10.45;;;;;;;;;;4931742;28;20056;-59
2022/11/07 00:31:30;;;;;;;20.40;10.52;;;;;;;;;;4931515;28;20377;-59
2022/11/07 00:33:56;;;;;;;18.20;8.88;;;;;;;;;;4930890;28;20050;-58
2022/11/07 00:36:27;;;;;;;21.67;9.50;;;;;;;;;;4930843;28;20445;-58
2022/11/07 00:38:54;;;;;;;16.20;8.48;;;;;;;;;;4931211;28;20457;-59
2022/11/07 00:41:20;;;;;;;20.10;10.55;;;;;;;;;;4932478;28;20453;-59
2022/11/07 00:43:46;;;;;;;20.30;8.75;;;;;;;;;;4931217;28;20815;-59
2022/11/07 00:46:14;;;;;;;16.55;9.15;;;;;;;;;;4930796;28;20299;-58
2022/11/07 00:48:40;;;;;;;17.70;8.75;;;;;;;;;;4932161;28;20395;-58
2022/11/07 00:51:06;;;;;;;14.68;7.80;;;;;;;;;;4931289;28;20440;-60
2022/11/07 00:53:32;;;;;;;15.75;7.97;;;;;;;;;;4930620;28;20405;-59
2022/11/07 00:56:07;;;;;;;16.08;8.90;;;;;;;;;;4931578;28;20426;-60
2022/11/07 00:58:33;;;;;;;19.48;10.05;;;;;;;;;;4930827;28;20429;-59
2022/11/07 01:01:05;;;;;;;13.68;7.65;;;;;;;;;;4929623;28;20414;-60
2022/11/07 01:06:15;;;;;;;14.20;7.97;;;;;;;;;;4913504;28;20453;-59
2022/11/07 01:08:40;;;;;;;14.98;7.95;;;;;;;;;;4911281;28;20307;-60
2022/11/07 01:11:06;;;;;;;15.98;8.98;;;;;;;;;;4913054;28;20527;-59
2022/11/07 01:13:32;;;;;;;14.15;7.70;;;;;;;;;;4911001;28;20397;-59
2022/11/07 01:15:58;;;;;;;13.75;7.57;;;;;;;;;;4911188;28;20331;-58
2022/11/07 01:18:23;;;;;;;15.93;8.43;;;;;;;;;;4912225;28;20360;-58
2022/11/07 01:20:49;;;;;;;16.45;6.88;;;;;;;;;;4910893;28;20362;-60
2022/11/07 01:23:15;;;;;;;12.88;7.55;;;;;;;;;;4911632;28;20035;-58
2022/11/07 01:25:41;;;;;;;15.73;8.18;;;;;;;;;;4911191;28;20038;-59
2022/11/07 01:28:08;;;;;;;16.35;7.72;;;;;;;;;;4911404;28;20485;-59
2022/11/07 01:30:38;;;;;;;16.70;8.25;;;;;;;;;;4911609;28;20465;-58
2022/11/07 01:33:03;;;;;;;16.73;7.90;;;;;;;;;;4911533;28;20413;-59
2022/11/07 01:35:29;;;;;;;12.77;7.18;;;;;;;;;;4911089;28;20393;-59
2022/11/07 01:37:54;;;;;;;13.82;7.18;;;;;;;;;;4911824;28;20553;-59
2022/11/07 01:40:20;;;;;;;11.88;6.68;;;;;;;;;;4911380;28;20062;-59
2022/11/07 01:42:45;;;;;;;14.25;6.82;;;;;;;;;;4912224;28;20458;-59
2022/11/07 01:45:27;;;;;;;12.95;6.88;;;;;;;;;;4911237;28;20405;-59
2022/11/07 01:47:57;;;;;;;12.30;6.35;;;;;;;;;;4910724;28;20081;-59
2022/11/07 01:50:23;;;;;;;15.35;7.20;;;;;;;;;;4910939;28;20566;-59
2022/11/07 01:52:50;;;;;;;14.18;7.40;;;;;;;;;;4909097;28;20490;-59
2022/11/07 01:55:22;;;;;;;13.48;7.30;;;;;;;;;;4911011;28;20458;-60
2022/11/07 01:58:05;;;;;;;13.38;7.60;;;;;;;;;;4910525;28;20488;-59
2022/11/07 02:00:33;;;;;;;13.18;6.55;;;;;;;;;;4909684;28;20427;-59
2022/11/07 02:03:08;;;;;;;13.50;7.30;;;;;;;;;;4911004;28;20438;-59
2022/11/07 02:05:41;;;;;;;15.02;8.02;;;;;;;;;;4908778;28;20339;-59
2022/11/07 02:08:08;;;;;;;13.63;6.75;;;;;;;;;;4910810;28;20350;-59
2022/11/07 02:10:35;;;;;;;12.77;7.00;;;;;;;;;;4910539;28;20505;-59
2022/11/07 02:13:02;;;;;;;14.43;7.40;;;;;;;;;;4910688;28;20031;-60
2022/11/07 02:15:28;;;;;;;10.05;6.05;;;;;;;;;;4911148;28;20349;-59
2022/11/07 02:17:55;;;;;;;10.45;6.25;;;;;;;;;;4909585;28;20541;-59
2022/11/07 02:20:20;;;;;;;11.80;6.07;;;;;;;;;;4911962;28;20438;-59
2022/11/07 02:23:07;;;;;;;13.15;6.40;;;;;;;;;;4910406;28;20481;-60
2022/11/07 02:25:33;;;;;;;10.57;6.28;;;;;;;;;;4910360;28;20486;-59
2022/11/07 02:28:03;;;;;;;12.10;5.97;;;;;;;;;;4912338;28;20326;-59
2022/11/07 02:30:33;;;;;;;11.32;6.15;;;;;;;;;;4909203;28;20377;-59
2022/11/07 02:32:59;;;;;;;11.05;6.22;;;;;;;;;;4910289;28;20407;-59
2022/11/07 02:35:38;;;;;;;12.25;6.32;;;;;;;;;;4910860;28;20039;-59
2022/11/07 02:38:14;;;;;;;13.00;6.78;;;;;;;;;;4908521;28;20518;-59
2022/11/07 02:40:42;;;;;;;11.80;5.88;;;;;;;;;;4910222;28;20373;-59
2022/11/07 02:43:10;;;;;;;9.02;5.78;;;;;;;;;;4927261;28;20492;-59
2022/11/07 02:45:40;;;;;;;11.52;5.20;;;;;;;;;;4929715;28;20056;-59
2022/11/07 02:48:06;;;;;;;9.00;5.60;;;;;;;;;;4929852;28;20434;-59
2022/11/07 02:50:31;;;;;;;9.73;5.35;;;;;;;;;;4929879;28;20496;-59
2022/11/07 02:52:57;;;;;;;10.75;5.07;;;;;;;;;;4929558;28;20034;-59
2022/11/07 02:55:22;;;;;;;10.15;5.88;;;;;;;;;;4929977;28;20302;-59
2022/11/07 02:57:48;;;;;;;10.13;5.78;;;;;;;;;;4928993;28;20604;-59
2022/11/07 03:00:14;;;;;;;8.40;4.70;;;;;;;;;;4929174;28;20066;-59
2022/11/07 03:02:45;;;;;;;14.20;5.72;;;;;;;;;;4929163;28;20369;-59
2022/11/07 03:05:17;;;;;;;8.98;5.00;;;;;;;;;;4929425;28;20454;-59
2022/11/07 03:07:44;;;;;;;10.93;5.63;;;;;;;;;;4932079;28;20315;-60
2022/11/07 03:10:10;;;;;;;8.23;4.85;;;;;;;;;;4933750;28;20418;-59
2022/11/07 03:12:36;;;;;;;8.63;4.97;;;;;;;;;;4932925;28;20346;-59
2022/11/07 03:15:07;;;;;;;8.85;5.15;;;;;;;;;;4932693;28;20381;-59
2022/11/07 03:17:33;;;;;;;9.70;5.20;;;;;;;;;;4932496;28;20093;-59
2022/11/07 03:19:58;;;;;;;10.73;5.22;;;;;;;;;;4933896;28;20437;-59
2022/11/07 03:22:24;;;;;;;8.82;5.15;;;;;;;;;;4932903;28;20373;-59
2022/11/07 03:24:49;;;;;;;10.40;5.72;;;;;;;;;;4933412;28;20407;-59
2022/11/07 03:27:15;;;;;;;8.50;4.85;;;;;;;;;;4933331;28;20327;-59
2022/11/07 03:29:41;;;;;;;9.55;5.30;;;;;;;;;;4932414;28;20105;-59
2022/11/07 03:32:07;;;;;;;7.57;4.97;;;;;;;;;;4932096;28;20030;-59
2022/11/07 03:34:32;;;;;;;9.05;5.07;;;;;;;;;;4932610;28;20059;-60
2022/11/07 03:36:57;;;;;;;9.15;5.10;;;;;;;;;;4931988;28;20026;-59
2022/11/07 03:39:24;;;;;;;10.60;4.68;;;;;;;;;;4932221;28;20112;-59
2022/11/07 03:41:49;;;;;;;10.95;4.97;;;;;;;;;;4932192;28;20448;-59
2022/11/07 03:44:15;;;;;;;9.18;4.97;;;;;;;;;;4932339;28;20422;-60
2022/11/07 03:46:40;;;;;;;9.27;5.28;;;;;;;;;;4934131;28;20026;-59
2022/11/07 03:49:07;;;;;;;8.15;4.82;;;;;;;;;;4932204;28;20026;-59
2022/11/07 03:51:33;;;;;;;7.80;4.65;;;;;;;;;;4932318;28;20084;-59
2022/11/07 03:53:58;;;;;;;7.95;4.82;;;;;;;;;;4932822;28;20435;-59
2022/11/07 03:56:24;;;;;;;8.20;4.68;;;;;;;;;;4931747;28;20455;-59
2022/11/07 03:58:49;;;;;;;8.82;4.78;;;;;;;;;;4931767;28;20169;-59
2022/11/07 04:01:15;;;;;;;8.80;4.53;;;;;;;;;;4933420;28;20438;-59
2022/11/07 04:03:40;;;;;;;8.63;5.20;;;;;;;;;;4932645;28;20442;-59
2022/11/07 04:06:06;;;;;;;8.15;5.10;;;;;;;;;;4931742;28;20453;-59
2022/11/07 04:08:32;;;;;;;8.68;4.93;;;;;;;;;;4932502;28;20425;-59
2022/11/07 04:10:58;;;;;;;7.70;4.53;;;;;;;;;;4931517;28;20385;-59
2022/11/07 04:18:58;;;;;;;7.88;4.40;;;;;;;;;;4932589;28;20483;-59
2022/11/07 04:21:23;;;;;;;9.63;5.32;;;;;;;;;;4932153;28;20088;-60
2022/11/07 04:23:49;;;;;;;9.10;5.45;;;;;;;;;;4931338;28;20529;-59
2022/11/07 04:28:58;;;;;;;9.93;4.72;;;;;;;;;;4931918;28;20421;-59
2022/11/07 04:31:24;;;;;;;6.68;4.50;;;;;;;;;;4931570;28;20183;-59
2022/11/07 04:33:50;;;;;;;7.75;4.35;;;;;;;;;;4931521;28;20362;-59
2022/11/07 04:36:17;;;;;;;6.88;4.65;;;;;;;;;;4931308;28;20342;-59
2022/11/07 04:38:43;;;;;;;9.75;4.63;;;;;;;;;;4931016;28;20308;-59
2022/11/07 04:41:22;;;;;;;8.13;4.65;;;;;;;;;;4932177;28;20049;-60
2022/11/07 04:43:48;;;;;;;11.68;4.15;;;;;;;;;;4930998;28;20505;-59
2022/11/07 04:46:15;;;;;;;7.00;4.50;;;;;;;;;;4931055;28;20345;-59
2022/11/07 04:48:42;;;;;;;8.82;4.45;;;;;;;;;;4931028;28;20325;-58
2022/11/07 04:51:15;;;;;;;8.35;4.43;;;;;;;;;;4930959;28;20062;-59
2022/11/07 04:53:40;;;;;;;7.40;3.95;;;;;;;;;;4931158;28;20061;-59
2022/11/07 04:56:06;;;;;;;7.43;4.50;;;;;;;;;;4931275;28;20497;-59
2022/11/07 04:58:32;;;;;;;7.43;4.93;;;;;;;;;;4932368;28;20430;-60
2022/11/07 05:00:57;;;;;;;6.25;3.67;;;;;;;;;;4929970;28;20402;-58
2022/11/07 05:03:22;;;;;;;8.02;4.53;;;;;;;;;;4931032;28;20105;-59
2022/11/07 05:05:48;;;;;;;7.45;4.32;;;;;;;;;;4932526;28;20057;-60
2022/11/07 05:08:13;;;;;;;6.72;3.90;;;;;;;;;;4930748;28;20426;-59
2022/11/07 05:10:39;;;;;;;8.70;4.45;;;;;;;;;;4931768;28;20346;-59
2022/11/07 05:13:04;;;;;;;6.22;3.75;;;;;;;;;;4930365;28;20501;-58
2022/11/07 05:15:30;;;;;;;7.72;4.38;;;;;;;;;;4930412;28;20400;-59
2022/11/07 05:17:55;;;;;;;7.22;4.25;;;;;;;;;;4930377;28;20465;-60
2022/11/07 05:20:28;;;;;;;9.73;4.70;;;;;;;;;;4930269;28;20350;-59
2022/11/07 05:25:49;;;;;;;6.25;3.75;;;;;;;;;;4931429;28;20057;-59
2022/11/07 05:28:20;;;;;;;8.63;4.45;;;;;;;;;;4929963;28;20350;-59
2022/11/07 05:30:46;;;;;;;9.35;4.85;;;;;;;;;;4930299;28;20065;-59
2022/11/07 05:33:14;;;;;;;6.90;4.07;;;;;;;;;;4929788;28;20422;-59
2022/11/07 05:35:40;;;;;;;7.50;3.83;;;;;;;;;;4928931;28;20121;-58
2022/11/07 05:38:06;;;;;;;7.50;4.03;;;;;;;;;;4930418;28;20368;-59
2022/11/07 05:40:34;;;;;;;8.05;4.72;;;;;;;;;;4929812;28;20061;-59
2022/11/07 05:43:03;;;;;;;7.18;4.35;;;;;;;;;;4930024;28;20421;-60
2022/11/07 05:45:30;;;;;;;9.60;4.18;;;;;;;;;;4931476;28;20034;-59
2022/11/07 05:48:01;;;;;;;7.78;4.13;;;;;;;;;;4930182;28;20492;-59
2022/11/07 05:50:28;;;;;;;7.97;4.63;;;;;;;;;;4929847;28;20434;-59
2022/11/07 05:52:55;;;;;;;5.95;4.10;;;;;;;;;;4930252;28;20406;-59
2022/11/07 05:55:21;;;;;;;5.93;3.75;;;;;;;;;;4931285;28;20429;-59
2022/11/07 05:57:46;;;;;;;8.30;4.50;;;;;;;;;;4928548;28;20357;-59
2022/11/07 06:00:13;;;;;;;9.77;4.90;;;;;;;;;;4929684;28;20357;-59
2022/11/07 06:02:39;;;;;;;9.85;4.80;;;;;;;;;;4930348;28;20461;-60
2022/11/07 06:05:05;;;;;;;8.07;4.97;;;;;;;;;;4929935;28;20554;-59
2022/11/07 06:07:38;;;;;;;6.97;4.53;;;;;;;;;;4930678;28;20373;-60
2022/11/07 06:10:06;;;;;;;9.25;4.80;;;;;;;;;;4930012;28;20345;-59
2022/11/07 06:12:31;;;;;;;12.10;5.30;;;;;;;;;;4929595;28;20381;-59
2022/11/07 06:14:57;;;;;;;10.60;5.85;;;;;;;;;;4930009;28;20093;-60
2022/11/07 06:17:22;;;;;;;10.38;5.82;;;;;;;;;;4929900;28;20330;-59
2022/11/07 06:19:48;;;;;;;11.30;6.10;;;;;;;;;;4929808;28;20053;-60
2022/11/07 06:22:13;;;;;;;14.10;6.85;;;;;;;;;;4929582;28;20464;-59
2022/11/07 06:24:39;;;;;;;12.63;6.32;;;;;;;;;;4930182;28;20444;-59
2022/11/07 06:27:04;;;;;;;9.00;4.93;;;;;;;;;;4930266;28;20030;-59
2022/11/07 06:29:30;;;;;;;10.73;5.50;;;;;;;;;;4929526;28;20045;-60
2022/11/07 06:31:55;;;;;;;11.15;5.63;;;;;;;;;;4927311;28;20500;-59
2022/11/07 06:34:21;;;;;;;14.95;6.47;;;;;;;;;;4928890;28;20334;-60
2022/11/07 06:36:52;;;;;;;13.75;6.22;;;;;;;;;;4930064;28;20444;-60
2022/11/07 06:39:17;;;;;;;11.43;6.30;;;;;;;;;;4929448;28;20338;-59
2022/11/07 06:41:43;;;;;;;9.00;5.97;;;;;;;;;;4930438;28;20104;-59
2022/11/07 06:44:08;;;;;;;10.23;5.65;;;;;;;;;;4934394;28;20538;-59
2022/11/07 06:46:34;;;;;;;10.32;5.20;;;;;;;;;;4933156;28;20408;-59
2022/11/07 06:48:59;;;;;;;8.43;4.78;;;;;;;;;;4933462;28;20350;-59
2022/11/07 06:51:24;;;;;;;9.90;6.15;;;;;;;;;;4933604;28;20311;-59
2022/11/07 06:53:50;;;;;;;10.55;5.47;;;;;;;;;;4933179;28;20397;-59
2022/11/07 06:56:16;;;;;;;11.98;5.55;;;;;;;;;;4933177;28;20070;-60
2022/11/07 06:58:41;;;;;;;12.30;5.40;;;;;;;;;;4933286;28;20441;-58
2022/11/07 07:01:12;;;;;;;11.07;6.00;;;;;;;;;;4932601;28;20342;-59
2022/11/07 07:03:39;;;;;;;12.82;6.13;;;;;;;;;;4933253;28;20393;-59
2022/11/07 07:06:08;;;;;;;14.98;6.22;;;;;;;;;;4933895;28;20376;-59
2022/11/07 07:08:33;;;;;;;10.50;6.00;;;;;;;;;;4933120;28;20053;-58
2022/11/07 07:11:09;;;;;;;11.35;6.07;;;;;;;;;;4933742;28;20026;-59
2022/11/07 07:13:34;;;;;;;9.88;6.07;;;;;;;;;;4932857;28;20034;-59
2022/11/07 07:16:00;;;;;;;8.20;4.95;;;;;;;;;;4933062;28;20414;-59
2022/11/07 07:18:26;;;;;;;11.15;6.13;;;;;;;;;;4932996;28;20342;-60
2022/11/07 07:21:07;;;;;;;12.63;5.70;;;;;;;;;;4933187;28;20385;-59
2022/11/07 07:23:34;;;;;;;11.07;6.05;;;;;;;;;;4931083;28;20045;-58
2022/11/07 07:26:01;;;;;;;13.07;5.60;;;;;;;;;;4932674;28;20458;-59
2022/11/07 07:28:27;;;;;;;8.90;6.05;;;;;;;;;;4932429;28;20364;-60
2022/11/07 07:30:53;;;;;;;16.58;5.65;;;;;;;;;;4932581;28;20397;-59
2022/11/07 07:33:19;;;;;;;13.13;6.60;;;;;;;;;;4930966;28;20334;-60
2022/11/07 07:35:45;;;;;;;11.23;6.35;;;;;;;;;;4932770;28;20410;-60
2022/11/07 07:38:11;;;;;;;12.65;5.95;;;;;;;;;;4932287;28;20512;-59
2022/11/07 07:40:36;;;;;;;10.35;5.28;;;;;;;;;;4932560;28;20519;-59
2022/11/07 07:43:02;;;;;;;13.18;6.18;;;;;;;;;;4932522;28;20096;-59
2022/11/07 07:45:27;;;;;;;11.80;6.03;;;;;;;;;;4932440;28;20095;-59
2022/11/07 07:48:00;;;;;;;12.90;7.03;;;;;;;;;;4932267;28;20476;-59
2022/11/07 07:50:26;;;;;;;13.15;6.68;;;;;;;;;;4933708;28;20330;-60
2022/11/07 07:52:58;;;;;;;15.25;5.88;;;;;;;;;;4931881;28;20403;-60
2022/11/07 07:55:24;;;;;;;16.85;6.72;;;;;;;;;;4932135;28;20472;-61
2022/11/07 07:57:50;;;;;;;13.52;6.43;;;;;;;;;;4931088;28;20442;-59
2022/11/07 08:00:15;;;;;;;10.15;6.03;;;;;;;;;;4932910;28;20520;-59
2022/11/07 08:02:42;;;;;;;14.20;5.88;;;;;;;;;;4930874;28;20353;-59
2022/11/07 08:05:08;;;;;;;14.10;6.30;;;;;;;;;;4931371;28;20322;-59
2022/11/07 08:07:34;;;;;;;8.38;5.70;;;;;;;;;;4930309;28;20434;-59
2022/11/07 08:09:59;;;;;;;9.35;5.65;;;;;;;;;;4931921;28;20426;-59
2022/11/07 08:12:25;;;;;;;12.15;6.20;;;;;;;;;;4933437;28;20429;-59
2022/11/07 08:14:50;;;;;;;12.60;6.10;;;;;;;;;;4931870;28;20345;-59
2022/11/07 08:17:16;;;;;;;10.50;5.20;;;;;;;;;;4931700;28;20484;-59
2022/11/07 08:19:41;;;;;;;11.95;5.97;;;;;;;;;;4931803;28;20547;-59
2022/11/07 08:22:07;;;;;;;10.77;6.63;;;;;;;;;;4931683;28;20346;-59
2022/11/07 08:24:32;;;;;;;11.98;6.65;;;;;;;;;;4932352;28;20378;-60
2022/11/07 08:26:58;;;;;;;13.27;6.68;;;;;;;;;;4931605;28;20389;-60
2022/11/07 08:29:23;;;;;;;14.75;6.85;;;;;;;;;;4930969;28;20397;-59
2022/11/07 08:31:49;;;;;;;10.18;6.30;;;;;;;;;;4931305;28;20345;-60
2022/11/07 08:34:17;;;;;;;9.27;5.93;;;;;;;;;;4931657;28;20396;-60
2022/11/07 08:36:42;;;;;;;8.98;5.85;;;;;;;;;;4931189;28;20034;-59
2022/11/07 08:39:08;;;;;;;12.52;6.35;;;;;;;;;;4932288;28;20030;-60
2022/11/07 08:41:33;;;;;;;11.90;5.60;;;;;;;;;;4932852;28;20418;-59
2022/11/07 08:43:59;;;;;;;15.40;6.93;;;;;;;;;;4930913;28;20394;-59
2022/11/07 08:46:24;;;;;;;11.63;6.03;;;;;;;;;;4931478;28;20358;-59
2022/11/07 08:48:49;;;;;;;14.15;6.10;;;;;;;;;;4931034;28;20049;-59
2022/11/07 08:51:15;;;;;;;12.55;6.25;;;;;;;;;;4932807;28;20472;-60
2022/11/07 08:53:40;;;;;;;12.50;6.75;;;;;;;;;;4932100;28;20524;-59
2022/11/07 08:56:08;;;;;;;12.50;5.45;;;;;;;;;;4930432;28;20414;-60
2022/11/07 08:58:35;;;;;;;9.57;5.60;;;;;;;;;;4931348;28;20397;-60
2022/11/07 09:01:08;;;;;;;13.80;5.80;;;;;;;;;;4930375;28;20458;-60
2022/11/07 09:03:35;;;;;;;8.65;4.97;;;;;;;;;;4930367;28;20475;-60
2022/11/07 09:06:01;;;;;;;9.63;5.32;;;;;;;;;;4930334;28;20369;-60
2022/11/07 09:08:27;;;;;;;9.40;5.07;;;;;;;;;;4930659;28;20442;-60
2022/11/07 09:10:53;;;;;;;10.25;5.75;;;;;;;;;;4932518;28;20307;-59
2022/11/07 09:13:19;;;;;;;11.07;5.20;;;;;;;;;;4930673;28;20338;-60
2022/11/07 09:15:45;;;;;;;8.95;4.93;;;;;;;;;;4930978;28;20414;-59
2022/11/07 09:18:10;;;;;;;9.40;5.03;;;;;;;;;;4930947;28;20421;-60
2022/11/07 09:20:36;;;;;;;11.43;4.97;;;;;;;;;;4930329;28;20117;-60
2022/11/07 09:23:01;;;;;;;8.38;4.43;;;;;;;;;;4930607;28;20329;-60
2022/11/07 09:25:27;;;;;;;10.15;4.43;;;;;;;;;;4930412;28;20454;-60
2022/11/07 09:27:53;;;;;;;7.85;4.55;;;;;;;;;;4930355;28;20031;-59
2022/11/07 09:30:19;;;;;;;7.68;4.45;;;;;;;;;;4930315;28;20442;-60
2022/11/07 09:32:45;;;;;;;8.95;4.32;;;;;;;;;;4930416;28;20422;-59
2022/11/07 09:35:13;;;;;;;9.02;4.38;;;;;;;;;;4930342;28;20073;-60
2022/11/07 09:37:42;;;;;;;7.30;4.28;;;;;;;;;;4930605;28;20457;-60
2022/11/07 09:40:19;;;;;;;7.00;3.75;;;;;;;;;;4930122;28;20034;-60
2022/11/07 09:43:29;;;;;;;10.02;4.72;;;;;;;;;;4931502;28;20026;-59
2022/11/07 09:46:14;;;;;;;6.97;3.90;;;;;;;;;;4913962;28;20513;-59
2022/11/07 09:48:49;;;;;;;8.93;4.25;;;;;;;;;;4928126;28;20479;-61
2022/11/07 09:51:32;;;;;;;6.72;3.47;;;;;;;;;;4930677;28;20291;-59
2022/11/07 09:54:09;;;;;;;7.55;4.28;;;;;;;;;;4930088;28;20437;-59
2022/11/07 09:56:34;;;;;;;9.18;3.92;;;;;;;;;;4930922;28;20326;-60
2022/11/07 09:59:06;;;;;;;9.15;4.05;;;;;;;;;;4929673;28;20405;-60
2022/11/07 10:01:32;;;;;;;9.93;4.35;;;;;;;;;;4928088;28;20445;-59
2022/11/07 10:03:58;;;;;;;12.48;3.85;;;;;;;;;;4930310;28;20377;-60
2022/11/07 10:06:33;;;;;;;5.80;3.30;;;;;;;;;;4931219;28;20088;-60
2022/11/07 10:09:11;;;;;;;8.88;4.20;;;;;;;;;;4928078;28;20442;-60
2022/11/07 10:11:52;;;;;;;10.82;3.78;;;;;;;;;;4928562;28;20034;-60
2022/11/07 10:14:56;;;;;;;11.25;4.32;;;;;;;;;;4928314;28;20057;-60
2022/11/07 10:17:40;;;;;;;9.90;4.00;;;;;;;;;;4934141;28;20477;-60
2022/11/07 10:20:35;;;;;;;12.77;3.90;;;;;;;;;;4934923;28;20030;-61
2022/11/07 10:23:38;;;;;;;7.15;3.90;;;;;;;;;;4933497;28;20062;-60
2022/11/07 10:26:10;;;;;;;6.82;4.68;;;;;;;;;;4933594;28;20373;-60
2022/11/07 10:29:14;;;;;;;6.35;3.42;;;;;;;;;;4933725;28;20477;-59
2022/11/07 10:31:50;;;;;;;7.78;4.07;;;;;;;;;;4933582;28;20488;-59
2022/11/07 10:34:45;;;;;;;8.80;3.42;;;;;;;;;;4934187;28;20030;-60
2022/11/07 10:37:11;;;;;;;5.72;3.35;;;;;;;;;;4934483;28;20444;-59
2022/11/07 10:39:36;;;;;;;8.98;3.92;;;;;;;;;;4933204;28;20410;-60
2022/11/07 10:42:30;;;;;;;8.52;3.15;;;;;;;;;;4933326;28;20454;-60
2022/11/07 10:44:57;;;;;;;8.23;3.42;;;;;;;;;;4930898;28;20517;-59
2022/11/07 10:47:26;;;;;;;6.35;3.45;;;;;;;;;;4931938;28;20346;-59
2022/11/07 10:49:53;;;;;;;;;;;;;;;;;;4934170;28;20456;-59
2022/11/07 10:52:19;;;;;;;6.07;2.85;;;;;;;;;;4933232;28;20366;-59
2022/11/07 10:54:45;;;;;;;9.82;3.30;;;;;;;;;;4933068;28;20097;-59
2022/11/07 10:57:21;;;;;;;6.85;3.70;;;;;;;;;;4933532;28;20393;-59
2022/11/07 10:59:55;;;;;;;12.15;3.20;;;;;;;;;;4931221;28;20415;-60
2022/11/07 11:02:43;;;;;;;7.90;4.10;;;;;;;;;;4933291;28;20444;-59
2022/11/07 11:05:26;;;;;;;5.65;3.30;;;;;;;;;;4931500;28;20026;-60
2022/11/07 11:07:55;;;;;;;8.75;3.60;;;;;;;;;;4932936;28;20339;-60
2022/11/07 11:10:29;;;;;;;6.15;3.45;;;;;;;;;;4932936;28;20352;-60
2022/11/07 11:12:55;;;;;;;5.10;3.00;;;;;;;;;;4932377;28;20500;-60
2022/11/07 11:15:24;;;;;;;11.02;4.78;;;;;;;;;;4932023;28;20448;-60
2022/11/07 11:18:03;;;;;;;8.00;4.03;;;;;;;;;;4932532;28;20700;-60
2022/11/07 11:20:41;;;;;;;8.43;3.33;;;;;;;;;;4932726;28;20337;-60
2022/11/07 11:23:19;;;;;;;5.40;3.10;;;;;;;;;;4931871;28;20034;-60
2022/11/07 11:25:48;;;;;;;5.55;3.25;;;;;;;;;;4930784;28;20359;-60
2022/11/07 11:28:23;;;;;;;6.72;3.30;;;;;;;;;;4932013;28;20038;-60
2022/11/07 11:30:56;;;;;;;14.50;3.42;;;;;;;;;;4932216;28;20333;-60
2022/11/07 11:33:30;;;;;;;10.45;3.22;;;;;;;;;;4930749;28;20057;-60
2022/11/07 11:36:04;;;;;;;5.70;3.50;;;;;;;;;;4931397;28;20361;-60
2022/11/07 11:38:36;;;;;;;9.20;3.38;;;;;;;;;;4930938;28;20501;-60
2022/11/07 11:41:36;;;;;;;7.35;3.97;;;;;;;;;;4931537;28;20454;-60
2022/11/07 11:44:19;;;;;;;4.95;3.15;;;;;;;;;;4931164;28;20422;-60
2022/11/07 11:47:08;;;;;;;6.82;3.55;;;;;;;;;;4932534;28;20479;-60
2022/11/07 11:50:02;;;;;;;6.07;3.40;;;;;;;;;;4932466;28;20299;-60
2022/11/07 11:52:30;;;;;;;5.25;3.38;;;;;;;;;;4928595;28;20529;-60
2022/11/07 11:54:57;;;;;;;5.22;2.97;;;;;;;;;;4933318;28;20464;-60
2022/11/07 11:57:35;;;;;;;9.85;2.55;;;;;;;;;;4932911;28;20381;-60
2022/11/07 12:00:19;;;;;;;8.80;3.33;;;;;;;;;;4930155;28;20460;-60
2022/11/07 12:03:24;;;;;;;5.07;2.90;;;;;;;;;;4930686;28;20373;-60
2022/11/07 12:06:05;;;;;;;8.15;2.55;;;;;;;;;;4931541;28;20330;-60
2022/11/07 12:09:01;;;;;;;7.22;2.90;;;;;;;;;;4933246;28;20426;-60
2022/11/07 12:12:17;;;;;;;5.45;3.08;;;;;;;;;;4931605;28;20469;-61
2022/11/07 12:15:17;;;;;;;6.63;3.03;;;;;;;;;;4931124;28;20437;-60
2022/11/07 12:17:55;;;;;;;6.07;2.60;;;;;;;;;;4931597;28;20396;-60
2022/11/07 12:20:29;;;;;;;6.40;3.83;;;;;;;;;;4930049;28;20034;-60
2022/11/07 12:23:38;;;;;;;5.30;2.65;;;;;;;;;;4931680;28;20484;-60
2022/11/07 12:26:11;;;;;;;;;;;;;;;;;;4933089;28;20496;-60
2022/11/07 12:28:49;;;;;;;5.22;2.88;;;;;;;;;;4931571;28;20309;-60
2022/11/07 12:31:35;;;;;;;5.05;2.80;;;;;;;;;;4932345;28;20461;-61
2022/11/07 12:34:22;;;;;;;6.32;3.03;;;;;;;;;;4932086;28;20430;-60
2022/11/07 12:37:42;;;;;;;6.57;2.67;;;;;;;;;;4929946;28;20042;-61
2022/11/07 12:40:46;;;;;;;5.18;2.80;;;;;;;;;;4924277;28;20093;-60
2022/11/07 12:43:17;;;;;;;8.30;2.65;;;;;;;;;;4931398;28;20117;-60
2022/11/07 12:46:19;;;;;;;4.38;2.85;;;;;;;;;;4931136;28;20410;-60
2022/11/07 12:48:54;;;;;;;6.53;2.63;;;;;;;;;;4913638;28;20441;-60
2022/11/07 12:51:41;;;;;;;5.80;2.70;;;;;;;;;;4929410;28;20495;-61
2022/11/07 12:54:39;;;;;;;5.65;2.72;;;;;;;;;;4931832;28;20057;-60
2022/11/07 12:57:24;;;;;;;10.45;3.75;;;;;;;;;;4929554;28;20030;-60
2022/11/07 13:00:19;;;;;;;4.40;2.80;;;;;;;;;;4928286;28;20456;-60
2022/11/07 13:03:31;;;;;;;4.75;2.53;;;;;;;;;;4927904;28;20034;-60
2022/11/07 13:06:02;;;;;;;5.43;2.85;;;;;;;;;;4917263;28;20473;-60
2022/11/07 13:08:42;;;;;;;6.88;3.45;;;;;;;;;;4927927;28;20038;-60
2022/11/07 13:11:24;;;;;;;5.78;2.85;;;;;;;;;;4927834;28;20042;-60
2022/11/07 13:14:18;;;;;;;6.75;3.08;;;;;;;;;;4928747;28;20041;-60
2022/11/07 13:17:23;;;;;;;5.93;3.40;;;;;;;;;;4929804;28;20430;-61
2022/11/07 13:20:24;;;;;;;5.05;2.92;;;;;;;;;;4931858;28;20453;-60
2022/11/07 13:22:59;;;;;;;8.68;2.65;;;;;;;;;;4929903;28;20453;-60
2022/11/07 13:25:30;;;;;;;4.53;2.60;;;;;;;;;;4931050;28;20089;-60
2022/11/07 13:27:55;;;;;;;5.45;2.90;;;;;;;;;;4930653;28;20026;-60
2022/11/07 13:30:34;;;;;;;7.05;3.17;;;;;;;;;;4930117;28;20445;-60
2022/11/07 13:33:00;;;;;;;5.97;3.17;;;;;;;;;;4930761;28;20524;-61
2022/11/07 13:35:36;;;;;;;5.65;2.55;;;;;;;;;;4928664;28;20430;-60
2022/11/07 13:38:13;;;;;;;10.82;3.42;;;;;;;;;;4931769;28;20516;-60
2022/11/07 13:40:48;;;;;;;4.65;2.72;;;;;;;;;;4929344;28;20479;-61
2022/11/07 13:43:26;;;;;;;4.25;2.58;;;;;;;;;;4928894;28;20418;-60
2022/11/07 13:45:56;;;;;;;7.65;3.10;;;;;;;;;;4928752;28;20030;-60
2022/11/07 13:48:28;;;;;;;5.53;2.75;;;;;;;;;;4930278;28;20034;-59
2022/11/07 13:51:14;;;;;;;5.00;2.83;;;;;;;;;;4928600;28;20120;-60
2022/11/07 13:54:10;;;;;;;7.50;2.15;;;;;;;;;;4928983;28;20450;-60
2022/11/07 13:57:01;;;;;;;3.78;2.33;;;;;;;;;;4930090;28;20395;-60
2022/11/07 13:59:30;;;;;;;5.53;2.97;;;;;;;;;;4929944;28;20062;-60
2022/11/07 14:01:56;;;;;;;5.90;3.10;;;;;;;;;;4929753;28;20343;-60
2022/11/07 14:04:27;;;;;;;5.95;3.15;;;;;;;;;;4929739;28;20031;-59
2022/11/07 14:06:59;;;;;;;5.57;3.20;;;;;;;;;;4930014;28;20495;-60
2022/11/07 14:09:27;;;;;;;6.85;3.00;;;;;;;;;;4930252;28;20185;-60
2022/11/07 14:11:54;;;;;;;6.70;3.35;;;;;;;;;;4927991;28;20385;-60
2022/11/07 14:14:25;;;;;;;5.22;2.97;;;;;;;;;;4929113;28;20093;-60
2022/11/07 14:16:51;;;;;;;8.70;3.05;;;;;;;;;;4930061;28;20445;-60
2022/11/07 14:19:25;;;;;;;3.55;2.50;;;;;;;;;;4929675;28;20689;-60
2022/11/07 14:21:53;;;;;;;7.00;3.08;;;;;;;;;;4929520;28;20120;-59
2022/11/07 14:24:21;;;;;;;9.17;3.10;;;;;;;;;;4929887;28;20026;-60
2022/11/07 14:27:01;;;;;;;7.25;2.72;;;;;;;;;;4929663;28;20265;-60
2022/11/07 14:29:27;;;;;;;6.13;2.83;;;;;;;;;;4929523;28;20026;-61
2022/11/07 14:31:58;;;;;;;5.03;2.83;;;;;;;;;;4930147;28;20299;-61
2022/11/07 14:34:24;;;;;;;6.10;2.90;;;;;;;;;;4929389;28;20034;-60
2022/11/07 14:36:58;;;;;;;6.75;3.42;;;;;;;;;;4929469;28;20457;-60
2022/11/07 14:39:27;;;;;;;7.07;3.65;;;;;;;;;;4929146;28;20338;-60
2022/11/07 14:41:54;;;;;;;;;;;;;;;;;;4928463;28;20426;-60
2022/11/07 14:44:38;;;;;;;7.25;4.18;;;;;;;;;;4929696;28;19917;-60
2022/11/07 14:47:07;;;;;;;10.85;5.53;;;;;;;;;;4927960;28;20382;-60
2022/11/07 14:49:40;;;;;;;61.80;26.00;;;;;;;;;;4927917;28;20439;-60
2022/11/07 14:52:20;;;;;;;22.23;9.27;;;;;;;;;;4928000;28;20487;-61
2022/11/07 14:54:47;;;;;;;13.38;6.10;;;;;;;;;;4927820;28;20357;-60
2022/11/07 14:57:13;;;;;;;13.18;5.43;;;;;;;;;;4928134;28;20100;-60
2022/11/07 14:59:40;;;;;;;13.60;5.32;;;;;;;;;;4927369;28;20362;-60
2022/11/07 15:02:11;;;;;;;9.35;5.25;;;;;;;;;;4928277;28;20410;-60
2022/11/07 15:04:40;;;;;;;9.85;5.03;;;;;;;;;;4932481;28;20484;-60
2022/11/07 15:07:28;;;;;;;8.45;4.53;;;;;;;;;;4932614;28;20460;-60
2022/11/07 15:09:57;;;;;;;8.15;4.53;;;;;;;;;;4932726;28;20429;-60
2022/11/07 15:12:28;;;;;;;9.57;5.07;;;;;;;;;;4933577;28;20134;-60
2022/11/07 15:15:08;;;;;;;13.50;6.30;;;;;;;;;;4932759;28;20437;-61
2022/11/07 15:17:44;;;;;;;14.95;6.75;;;;;;;;;;4931073;28;20580;-60